Time;durP1;ratioP1;P1;durP2;ratioP2;P2;SDS_P1;SDS_P2;PMS_P1;PMS_P2;Temp;Humidity;BMP_temperature;BMP_pressure;BME280_temperature;BME280_humidity;BME280_pressure;Samples;Min_cycle;Max_cycle;Signal;HPM_P1;HPM_P2
2023/04/27 00:00:29;;;;;;;17.17;8.87;;;7.20;99.90;;;;;;5052023;28;20186;-66
2023/04/27 00:02:56;;;;;;;16.97;8.67;;;7.30;99.90;;;;;;5049680;28;20185;-65
2023/04/27 00:05:22;;;;;;;12.77;7.73;;;7.30;99.90;;;;;;5050316;28;20194;-66
2023/04/27 00:07:47;;;;;;;17.37;8.53;;;7.20;99.90;;;;;;5051955;28;20523;-65
2023/04/27 00:10:13;;;;;;;18.20;9.03;;;7.20;99.90;;;;;;5050323;28;20749;-64
2023/04/27 00:12:41;;;;;;;15.87;7.47;;;7.20;99.90;;;;;;5050830;28;20519;-65
2023/04/27 00:15:07;;;;;;;14.73;8.30;;;7.20;99.90;;;;;;5048836;28;20182;-64
2023/04/27 00:17:33;;;;;;;18.80;10.20;;;7.10;99.90;;;;;;5043853;28;20194;-64
2023/04/27 00:19:59;;;;;;;18.33;9.47;;;7.00;99.90;;;;;;5047897;28;20698;-64
2023/04/27 00:22:25;;;;;;;20.93;9.27;;;7.00;99.90;;;;;;5052073;28;20185;-64
2023/04/27 00:24:51;;;;;;;25.73;10.63;;;7.00;99.90;;;;;;5048500;28;20190;-64
2023/04/27 00:27:17;;;;;;;25.27;10.13;;;7.00;99.90;;;;;;5084223;28;20523;-64
2023/04/27 00:29:42;;;;;;;23.07;11.93;;;7.00;99.90;;;;;;5035498;28;20352;-64
2023/04/27 00:32:09;;;;;;;21.70;11.67;;;7.00;99.90;;;;;;5035208;28;20237;-65
2023/04/27 00:34:35;;;;;;;22.80;11.90;;;7.10;99.90;;;;;;5051867;28;20182;-65
2023/04/27 00:37:01;;;;;;;12.37;8.80;;;7.00;99.90;;;;;;5039774;28;20187;-66
2023/04/27 00:39:27;;;;;;;19.60;9.23;;;6.90;99.90;;;;;;5052067;28;20214;-65
2023/04/27 00:41:53;;;;;;;18.07;8.13;;;6.70;99.90;;;;;;5050235;28;20190;-64
2023/04/27 00:44:23;;;;;;;19.43;9.20;;;6.70;99.90;;;;;;5037881;28;20263;-65
2023/04/27 00:46:49;;;;;;;15.03;9.13;;;6.70;99.90;;;;;;5041682;28;20214;-64
2023/04/27 00:49:15;;;;;;;15.53;8.17;;;6.70;99.90;;;;;;5054298;28;20245;-64
2023/04/27 00:51:41;;;;;;;15.03;9.93;;;6.80;99.90;;;;;;5051341;28;20243;-64
2023/04/27 00:54:07;;;;;;;11.33;7.40;;;6.70;99.90;;;;;;5044351;28;20186;-65
2023/04/27 00:56:33;;;;;;;13.93;7.83;;;6.70;99.90;;;;;;5039710;28;20189;-65
2023/04/27 00:58:58;;;;;;;12.83;7.80;;;6.60;99.90;;;;;;5046879;28;20194;-65
2023/04/27 01:01:24;;;;;;;14.13;7.47;;;6.60;99.90;;;;;;5049872;28;20186;-65
2023/04/27 01:03:50;;;;;;;16.40;8.63;;;6.60;99.90;;;;;;5042532;28;20183;-65
2023/04/27 01:06:16;;;;;;;10.30;7.17;;;6.70;99.90;;;;;;5035591;28;20255;-65
2023/04/27 01:08:42;;;;;;;12.13;8.27;;;6.60;99.90;;;;;;5051051;28;20229;-64
2023/04/27 01:11:07;;;;;;;13.23;7.60;;;6.40;99.90;;;;;;5037898;28;20194;-65
2023/04/27 01:13:33;;;;;;;16.53;8.43;;;6.30;99.90;;;;;;5051406;28;20182;-64
2023/04/27 01:15:58;;;;;;;11.83;7.57;;;6.20;99.90;;;;;;5051444;28;20544;-65
2023/04/27 01:18:24;;;;;;;13.67;7.93;;;6.20;99.90;;;;;;5051294;28;20565;-65
2023/04/27 01:20:50;;;;;;;12.83;7.40;;;6.30;99.90;;;;;;5041926;28;20540;-65
2023/04/27 01:23:16;;;;;;;12.37;6.93;;;6.30;99.90;;;;;;5051199;28;20217;-65
2023/04/27 01:25:41;;;;;;;14.13;7.40;;;6.30;99.90;;;;;;5049835;28;20190;-66
2023/04/27 01:28:07;;;;;;;10.90;8.10;;;6.20;99.90;;;;;;5052052;28;20216;-65
2023/04/27 01:30:33;;;;;;;10.20;7.23;;;6.20;99.90;;;;;;5055376;28;20701;-64
2023/04/27 01:32:58;;;;;;;8.23;6.30;;;6.20;99.90;;;;;;5050733;28;20562;-64
2023/04/27 01:35:24;;;;;;;12.93;7.57;;;6.10;99.90;;;;;;5054152;28;20265;-64
2023/04/27 01:37:50;;;;;;;12.80;7.33;;;6.00;99.90;;;;;;5051133;28;20596;-65
2023/04/27 01:40:15;;;;;;;13.57;8.40;;;6.00;99.90;;;;;;5055929;28;20547;-65
2023/04/27 01:42:41;;;;;;;10.10;7.47;;;5.90;99.90;;;;;;5053228;28;20228;-66
2023/04/27 01:45:08;;;;;;;10.23;7.37;;;5.80;99.90;;;;;;5041121;28;20191;-65
2023/04/27 01:47:34;;;;;;;13.37;7.60;;;5.80;99.90;;;;;;5043838;28;20190;-64
2023/04/27 01:49:59;;;;;;;11.67;6.93;;;5.80;99.90;;;;;;5054577;28;20225;-66
2023/04/27 01:52:25;;;;;;;12.53;7.63;;;5.80;99.90;;;;;;5042926;28;20290;-65
2023/04/27 01:54:50;;;;;;;10.57;7.30;;;5.80;99.90;;;;;;5045296;28;20636;-65
2023/04/27 01:57:16;;;;;;;12.13;7.60;;;5.70;99.90;;;;;;5053564;28;20190;-65
2023/04/27 01:59:42;;;;;;;15.57;7.77;;;5.80;99.90;;;;;;5054680;28;20338;-64
2023/04/27 02:02:07;;;;;;;12.17;6.53;;;5.80;99.90;;;;;;5042536;28;20186;-65
2023/04/27 02:04:35;;;;;;;8.37;7.03;;;5.70;99.90;;;;;;5049409;28;20186;-65
2023/04/27 02:07:01;;;;;;;12.67;7.60;;;5.80;99.90;;;;;;5032803;28;20187;-65
2023/04/27 02:09:26;;;;;;;16.30;8.13;;;5.70;99.90;;;;;;5046803;28;20206;-64
2023/04/27 02:11:52;;;;;;;10.87;7.23;;;5.70;99.90;;;;;;5045949;28;20199;-65
2023/04/27 02:14:17;;;;;;;10.23;7.30;;;5.70;99.90;;;;;;5037279;28;20193;-65
2023/04/27 02:16:43;;;;;;;9.70;6.47;;;5.80;99.90;;;;;;5053989;28;20268;-65
2023/04/27 02:19:09;;;;;;;11.93;7.40;;;5.80;99.90;;;;;;5053824;28;20244;-65
2023/04/27 02:21:36;;;;;;;13.93;7.57;;;5.80;99.90;;;;;;5053933;28;20202;-65
2023/04/27 02:24:01;;;;;;;15.07;7.97;;;5.70;99.90;;;;;;5054188;28;20585;-65
2023/04/27 02:26:28;;;;;;;11.30;7.50;;;5.70;99.90;;;;;;5044697;28;20625;-65
2023/04/27 02:28:58;;;;;;;11.47;7.97;;;5.70;99.90;;;;;;5052057;28;20218;-64
2023/04/27 02:31:23;;;;;;;13.80;7.73;;;5.70;99.90;;;;;;5053777;28;20192;-65
2023/04/27 02:33:49;;;;;;;10.33;7.33;;;5.60;99.90;;;;;;5042348;28;20182;-65
2023/04/27 02:36:15;;;;;;;15.77;8.30;;;5.50;99.90;;;;;;5053724;28;20182;-68
2023/04/27 02:38:40;;;;;;;12.03;7.10;;;5.40;99.90;;;;;;5048451;28;20183;-65
2023/04/27 02:41:06;;;;;;;13.37;7.47;;;5.30;99.90;;;;;;5053120;28;20178;-65
2023/04/27 02:43:32;;;;;;;12.03;7.27;;;5.20;99.90;;;;;;5053239;28;20186;-65
2023/04/27 02:46:04;;;;;;;14.63;8.00;;;5.30;99.90;;;;;;5051126;28;20213;-64
2023/04/27 02:48:30;;;;;;;10.20;7.07;;;5.30;99.90;;;;;;5049774;28;20199;-64
2023/04/27 02:50:56;;;;;;;12.50;8.30;;;5.30;99.90;;;;;;5084791;28;20205;-65
2023/04/27 02:53:22;;;;;;;10.60;7.13;;;5.50;99.90;;;;;;5052259;28;20331;-63
2023/04/27 02:55:49;;;;;;;10.87;6.87;;;5.60;99.90;;;;;;5045063;28;20178;-64
2023/04/27 02:58:15;;;;;;;12.73;8.13;;;5.70;99.90;;;;;;5053192;28;20181;-65
2023/04/27 03:00:42;;;;;;;13.50;7.67;;;5.60;99.90;;;;;;5039524;28;20186;-66
2023/04/27 03:03:08;;;;;;;11.83;7.00;;;5.50;99.90;;;;;;5050988;28;20244;-64
2023/04/27 03:05:35;;;;;;;20.83;7.87;;;5.40;99.90;;;;;;5047054;28;20257;-65
2023/04/27 03:08:00;;;;;;;9.00;7.00;;;5.30;99.90;;;;;;5052826;28;20260;-65
2023/04/27 03:10:26;;;;;;;10.43;7.33;;;5.20;99.90;;;;;;5051531;28;20242;-64
2023/04/27 03:12:52;;;;;;;15.83;7.47;;;5.10;99.90;;;;;;5052823;28;20186;-65
2023/04/27 03:15:17;;;;;;;11.17;7.40;;;5.00;99.90;;;;;;5053150;28;20265;-65
2023/04/27 03:17:43;;;;;;;15.77;9.00;;;4.90;99.90;;;;;;5039710;28;20267;-65
2023/04/27 03:20:09;;;;;;;16.27;9.23;;;4.80;99.90;;;;;;5051755;28;20639;-65
2023/04/27 03:22:36;;;;;;;12.93;8.23;;;4.80;99.90;;;;;;5047794;28;20269;-64
2023/04/27 03:25:02;;;;;;;11.50;6.97;;;4.90;99.90;;;;;;5050190;28;20659;-64
2023/04/27 03:27:28;;;;;;;19.70;8.67;;;5.00;99.90;;;;;;5066163;28;20265;-64
2023/04/27 03:29:54;;;;;;;14.13;7.70;;;5.00;99.90;;;;;;5050156;28;20399;-64
2023/04/27 03:32:20;;;;;;;12.80;8.20;;;5.10;99.90;;;;;;5052674;28;20595;-64
2023/04/27 03:34:45;;;;;;;14.13;7.90;;;5.20;99.90;;;;;;5052850;28;20189;-65
2023/04/27 03:37:11;;;;;;;11.60;7.97;;;5.10;99.90;;;;;;5053109;28;20638;-65
2023/04/27 03:39:37;;;;;;;12.70;7.33;;;5.00;99.90;;;;;;5039505;28;20182;-64
2023/04/27 03:42:03;;;;;;;16.03;7.80;;;5.00;99.90;;;;;;5047749;28;20186;-64
2023/04/27 03:44:33;;;;;;;14.73;9.10;;;4.90;99.90;;;;;;5046200;28;20193;-64
2023/04/27 03:46:59;;;;;;;12.67;8.23;;;4.90;99.90;;;;;;5051224;28;20186;-64
2023/04/27 03:49:25;;;;;;;11.37;8.00;;;5.10;99.90;;;;;;5051646;28;20293;-64
2023/04/27 03:51:51;;;;;;;11.27;7.70;;;5.30;99.90;;;;;;5046773;28;20187;-64
2023/04/27 03:54:16;;;;;;;12.20;8.03;;;5.20;99.90;;;;;;5047140;28;20182;-64
2023/04/27 03:56:43;;;;;;;18.00;9.23;;;5.30;99.90;;;;;;5051760;28;20194;-64
2023/04/27 03:59:09;;;;;;;11.40;8.90;;;5.10;99.90;;;;;;5047991;28;20666;-64
2023/04/27 04:01:35;;;;;;;11.47;8.67;;;5.10;99.90;;;;;;5052480;28;20205;-64
2023/04/27 04:04:01;;;;;;;12.97;8.70;;;5.10;99.90;;;;;;5052127;28;20599;-64
2023/04/27 04:06:27;;;;;;;14.63;8.67;;;5.20;99.90;;;;;;5052095;28;20185;-64
2023/04/27 04:08:53;;;;;;;14.87;8.50;;;5.10;99.90;;;;;;5050292;28;20259;-64
2023/04/27 04:11:19;;;;;;;18.27;10.37;;;5.00;99.90;;;;;;5052022;28;20232;-64
2023/04/27 04:13:45;;;;;;;11.73;9.40;;;4.90;99.90;;;;;;5052205;28;20603;-64
2023/04/27 04:16:10;;;;;;;16.10;10.37;;;5.00;99.90;;;;;;5041725;28;20646;-64
2023/04/27 04:18:36;;;;;;;13.63;9.53;;;4.80;99.90;;;;;;5048122;28;20234;-64
2023/04/27 04:21:02;;;;;;;14.67;8.43;;;4.80;99.90;;;;;;5039732;28;20298;-64
2023/04/27 04:23:28;;;;;;;19.40;10.87;;;4.80;99.90;;;;;;5042771;28;20182;-64
2023/04/27 04:25:57;;;;;;;19.73;9.67;;;4.80;99.90;;;;;;5044499;28;20545;-64
2023/04/27 04:28:23;;;;;;;15.40;10.63;;;5.00;99.90;;;;;;5044996;28;20214;-64
2023/04/27 04:30:49;;;;;;;18.57;9.33;;;4.80;99.90;;;;;;5052058;28;20239;-64
2023/04/27 04:33:16;;;;;;;16.57;9.40;;;4.90;99.90;;;;;;5051333;28;20225;-64
2023/04/27 04:35:42;;;;;;;14.47;10.20;;;4.90;99.90;;;;;;5051651;28;20269;-67
2023/04/27 04:38:08;;;;;;;16.17;9.17;;;4.80;99.90;;;;;;5051701;28;20265;-65
2023/04/27 04:40:33;;;;;;;18.27;9.80;;;4.90;99.90;;;;;;5038730;28;20186;-70
2023/04/27 04:42:59;;;;;;;20.97;9.67;;;4.90;99.90;;;;;;5051816;28;20205;-65
2023/04/27 04:45:25;;;;;;;18.30;10.07;;;4.80;99.90;;;;;;5050212;28;20181;-66
2023/04/27 04:47:53;;;;;;;11.13;8.20;;;4.90;99.90;;;;;;5048987;28;20210;-65
2023/04/27 04:50:19;;;;;;;16.60;8.83;;;4.80;99.90;;;;;;5046725;28;20182;-64
2023/04/27 04:52:45;;;;;;;15.83;9.93;;;4.70;99.90;;;;;;5051077;28;20642;-64
2023/04/27 04:55:10;;;;;;;16.77;9.77;;;4.60;99.90;;;;;;5048846;28;20245;-65
2023/04/27 04:57:36;;;;;;;14.13;10.00;;;4.60;99.90;;;;;;5040507;28;20655;-65
2023/04/27 05:00:05;;;;;;;15.93;10.67;;;4.80;99.90;;;;;;5046256;28;20190;-69
2023/04/27 05:02:31;;;;;;;15.50;9.90;;;4.90;99.90;;;;;;5048081;28;20204;-65
2023/04/27 05:04:57;;;;;;;16.90;9.80;;;4.90;99.90;;;;;;5052903;28;20186;-66
2023/04/27 05:07:22;;;;;;;13.57;9.70;;;4.90;99.90;;;;;;5053613;28;20277;-70
2023/04/27 05:09:48;;;;;;;21.77;10.63;;;4.90;99.90;;;;;;5048424;28;20228;-64
2023/04/27 05:12:13;;;;;;;14.20;8.67;;;5.00;99.90;;;;;;5054539;28;20237;-63
2023/04/27 05:14:39;;;;;;;19.23;10.67;;;5.20;99.90;;;;;;5050599;28;20178;-65
2023/04/27 05:17:05;;;;;;;14.97;9.73;;;5.10;99.90;;;;;;5051044;28;20193;-65
2023/04/27 05:19:31;;;;;;;15.73;10.03;;;5.10;99.90;;;;;;5053770;28;20287;-65
2023/04/27 05:21:57;;;;;;;15.67;9.97;;;5.00;99.90;;;;;;5055185;28;20210;-65
2023/04/27 05:24:25;;;;;;;17.57;10.00;;;5.00;99.90;;;;;;5055090;28;20217;-64
2023/04/27 05:26:50;;;;;;;13.60;10.07;;;5.20;99.90;;;;;;5048115;28;20192;-65
2023/04/27 05:29:16;;;;;;;18.87;9.83;;;5.50;99.90;;;;;;5054249;28;20201;-70
2023/04/27 05:31:42;;;;;;;21.20;10.70;;;5.60;99.90;;;;;;5053593;28;20746;-65
2023/04/27 05:34:08;;;;;;;18.23;9.60;;;5.90;99.90;;;;;;5051393;28;20261;-65
2023/04/27 05:36:34;;;;;;;13.57;9.17;;;6.00;99.90;;;;;;5048149;28;20185;-65
2023/04/27 05:39:01;;;;;;;20.67;9.57;;;6.00;99.90;;;;;;5054867;28;20217;-65
2023/04/27 05:41:26;;;;;;;16.60;10.77;;;6.00;99.90;;;;;;5047379;28;20675;-65
2023/04/27 05:43:52;;;;;;;16.93;10.23;;;6.20;99.90;;;;;;5051521;28;20210;-64
2023/04/27 05:46:19;;;;;;;17.47;10.10;;;6.10;99.90;;;;;;5086978;28;20186;-64
2023/04/27 05:48:45;;;;;;;17.87;9.87;;;6.30;99.90;;;;;;5048438;28;20206;-64
2023/04/27 05:51:11;;;;;;;15.77;10.30;;;6.40;99.90;;;;;;5053360;28;20200;-67
2023/04/27 05:53:36;;;;;;;14.27;8.90;;;6.50;99.90;;;;;;5054190;28;20243;-65
2023/04/27 05:56:05;;;;;;;16.00;9.10;;;6.80;99.90;;;;;;5044095;28;20192;-66
2023/04/27 05:58:31;;;;;;;13.53;9.00;;;7.00;99.90;;;;;;5051436;28;20205;-65
2023/04/27 06:00:57;;;;;;;17.47;9.67;;;6.80;99.90;;;;;;5062707;28;20182;-68
2023/04/27 06:03:23;;;;;;;15.67;9.27;;;6.40;99.90;;;;;;5081287;28;20197;-69
2023/04/27 06:05:59;;;;;;;13.63;8.43;;;6.30;99.90;;;;;;5053856;28;20321;-67
2023/04/27 06:08:26;;;;;;;21.10;10.70;;;6.40;99.90;;;;;;5050659;28;20292;-71
2023/04/27 06:10:52;;;;;;;16.13;8.87;;;6.60;99.90;;;;;;5052963;28;20182;-74
2023/04/27 06:13:18;;;;;;;14.13;10.03;;;6.70;99.90;;;;;;5046322;28;20177;-67
2023/04/27 06:15:44;;;;;;;14.93;9.47;;;6.60;99.90;;;;;;5016731;28;20273;-69
2023/04/27 06:18:10;;;;;;;15.30;9.97;;;6.70;99.90;;;;;;5032769;28;20313;-74
2023/04/27 06:20:36;;;;;;;14.77;8.87;;;7.00;99.90;;;;;;5047003;28;20411;-67
2023/04/27 06:23:02;;;;;;;16.60;8.60;;;6.80;99.90;;;;;;5054030;28;20181;-71
2023/04/27 06:25:27;;;;;;;17.83;10.10;;;6.70;99.90;;;;;;5043337;28;20179;-73
2023/04/27 06:27:55;;;;;;;11.73;8.27;;;6.80;99.90;;;;;;5047322;28;20248;-75
2023/04/27 06:30:21;;;;;;;16.37;9.00;;;7.10;99.90;;;;;;5054066;28;20193;-71
2023/04/27 06:32:47;;;;;;;12.70;8.70;;;7.50;99.90;;;;;;5053532;28;20173;-72
2023/04/27 06:35:13;;;;;;;17.63;9.47;;;7.80;99.90;;;;;;5050445;28;20673;-71
2023/04/27 06:37:39;;;;;;;17.77;9.40;;;8.10;99.90;;;;;;5051966;28;20257;-70
2023/04/27 06:40:05;;;;;;;18.83;9.47;;;8.10;99.90;;;;;;5047987;28;20648;-73
2023/04/27 06:42:31;;;;;;;15.60;9.20;;;8.00;99.90;;;;;;5049577;28;20187;-71
2023/04/27 06:44:57;;;;;;;18.83;9.03;;;7.90;99.90;;;;;;5044535;28;20190;-74
2023/04/27 06:47:23;;;;;;;11.80;8.80;;;8.10;99.90;;;;;;5047261;28;20213;-70
2023/04/27 06:49:49;;;;;;;15.60;8.43;;;8.40;99.90;;;;;;5043882;28;20263;-71
2023/04/27 06:52:15;;;;;;;11.17;8.03;;;8.70;99.90;;;;;;5049101;28;20186;-70
2023/04/27 06:54:41;;;;;;;14.83;7.90;;;8.80;99.90;;;;;;5052066;28;20182;-71
2023/04/27 06:57:06;;;;;;;11.63;7.80;;;8.60;99.90;;;;;;5053495;28;20639;-71
2023/04/27 06:59:32;;;;;;;20.27;8.93;;;8.50;99.90;;;;;;5049645;28;20654;-70
2023/04/27 07:01:57;;;;;;;16.67;8.83;;;8.60;99.90;;;;;;5051234;28;20264;-71
2023/04/27 07:04:23;;;;;;;16.33;8.10;;;8.50;99.90;;;;;;5052905;28;20186;-70
2023/04/27 07:06:49;;;;;;;11.80;8.20;;;8.60;99.90;;;;;;5051201;28;20173;-71
2023/04/27 07:09:15;;;;;;;13.43;9.13;;;8.70;99.90;;;;;;5053022;28;20267;-69
2023/04/27 07:11:40;;;;;;;13.20;7.83;;;8.80;99.90;;;;;;5047176;28;20175;-71
2023/04/27 07:14:06;;;;;;;15.03;7.93;;;9.10;99.90;;;;;;5035963;28;20190;-71
2023/04/27 07:16:32;;;;;;;15.13;8.80;;;9.20;99.90;;;;;;5053255;28;20189;-70
2023/04/27 07:18:57;;;;;;;17.53;8.60;;;9.30;99.90;;;;;;5051750;28;20241;-70
2023/04/27 07:21:23;;;;;;;13.70;8.50;;;9.40;99.90;;;;;;5051626;28;20178;-71
2023/04/27 07:23:49;;;;;;;13.93;8.13;;;9.60;99.90;;;;;;5044058;28;20178;-70
2023/04/27 07:26:14;;;;;;;16.33;8.27;;;9.70;99.90;;;;;;5053507;28;20193;-71
2023/04/27 07:28:40;;;;;;;13.57;7.93;;;9.80;99.90;;;;;;5052924;28;20637;-70
2023/04/27 07:31:06;;;;;;;14.43;8.47;;;9.80;99.90;;;;;;5052868;28;20259;-72
2023/04/27 07:33:33;;;;;;;16.63;9.47;;;10.10;99.90;;;;;;5037143;28;20265;-71
2023/04/27 07:35:59;;;;;;;11.43;8.02;;;11.30;99.90;;;;;;5051031;28;20302;-71
2023/04/27 07:38:27;;;;;;;13.48;8.38;;;12.60;99.90;;;;;;5051344;28;20190;-74
2023/04/27 07:40:54;;;;;;;11.50;7.55;;;13.40;99.90;;;;;;5052903;28;20481;-71
2023/04/27 07:43:21;;;;;;;14.70;8.40;;;14.80;99.90;;;;;;5047773;28;20216;-71
2023/04/27 07:45:48;;;;;;;14.90;8.48;;;15.20;99.90;;;;;;5042539;28;20277;-71
2023/04/27 07:48:14;;;;;;;15.45;8.50;;;15.80;99.90;;;;;;5043314;28;20182;-72
2023/04/27 07:50:39;;;;;;;12.40;7.80;;;16.90;99.90;;;;;;5081896;28;20266;-73
2023/04/27 07:53:05;;;;;;;15.20;8.73;;;16.90;99.90;;;;;;5052038;28;20189;-76
2023/04/27 07:55:31;;;;;;;16.25;9.95;;;16.80;99.90;;;;;;5052097;28;20642;-72
2023/04/27 07:57:56;;;;;;;15.65;8.30;;;16.00;99.90;;;;;;5051728;28;20721;-72
2023/04/27 08:00:24;;;;;;;14.02;8.75;;;15.00;99.90;;;;;;5051596;28;20186;-74
2023/04/27 08:02:52;;;;;;;15.43;9.60;;;14.70;99.90;;;;;;5051592;28;20646;-75
2023/04/27 08:05:18;;;;;;;16.77;10.23;;;14.60;99.90;;;;;;5059156;28;20174;-77
2023/04/27 08:07:44;;;;;;;18.40;10.55;;;15.70;99.90;;;;;;5052396;28;20328;-72
2023/04/27 08:10:10;;;;;;;21.30;10.15;;;16.40;99.90;;;;;;5041803;28;20526;-71
2023/04/27 08:12:36;;;;;;;18.98;9.52;;;16.80;99.90;;;;;;5049408;28;20181;-73
2023/04/27 08:15:01;;;;;;;18.90;9.90;;;16.50;99.90;;;;;;5051676;28;20540;-75
2023/04/27 08:17:27;;;;;;;18.52;10.05;;;17.00;99.90;;;;;;5046398;28;20179;-72
2023/04/27 08:19:53;;;;;;;18.75;10.60;;;17.50;99.90;;;;;;5078556;28;20241;-71
2023/04/27 08:22:18;;;;;;;15.95;9.57;;;18.10;99.90;;;;;;5057984;28;20628;-72
2023/04/27 08:24:44;;;;;;;15.38;9.23;;;17.70;99.90;;;;;;5044542;28;20185;-72
2023/04/27 08:27:10;;;;;;;18.38;9.98;;;16.80;99.90;;;;;;5052143;28;20541;-73
2023/04/27 08:29:35;;;;;;;20.58;10.02;;;16.00;99.90;;;;;;5044964;28;20211;-72
2023/04/27 08:32:03;;;;;;;18.05;10.52;;;15.30;99.90;;;;;;5043124;28;20182;-72
2023/04/27 08:34:29;;;;;;;19.50;10.30;;;15.70;99.90;;;;;;5056818;28;20209;-72
2023/04/27 08:36:55;;;;;;;17.65;9.68;;;15.70;99.90;;;;;;5067932;28;20190;-72
2023/04/27 08:39:22;;;;;;;14.30;9.15;;;15.60;99.90;;;;;;5050210;28;20269;-76
2023/04/27 08:41:48;;;;;;;18.80;10.50;;;15.50;99.90;;;;;;5050064;28;20643;-71
2023/04/27 08:44:14;;;;;;;18.75;10.13;;;15.50;99.90;;;;;;5055643;28;20269;-74
2023/04/27 08:46:41;;;;;;;23.35;10.52;;;15.60;99.90;;;;;;5052160;28;20185;-74
2023/04/27 08:49:06;;;;;;;17.17;9.70;;;15.30;99.90;;;;;;5054519;28;20209;-75
2023/04/27 08:51:33;;;;;;;18.38;11.18;;;15.40;99.90;;;;;;5054667;28;20190;-74
2023/04/27 08:53:59;;;;;;;13.73;9.30;;;15.30;99.90;;;;;;5054058;28;20269;-73
2023/04/27 08:56:27;;;;;;;16.40;10.55;;;15.40;99.90;;;;;;5052016;28;20170;-75
2023/04/27 08:58:53;;;;;;;16.20;8.50;;;15.70;99.90;;;;;;5046147;28;20228;-73
2023/04/27 09:01:20;;;;;;;17.00;9.13;;;14.90;99.90;;;;;;5042915;28;20257;-73
2023/04/27 09:03:46;;;;;;;17.23;8.88;;;14.30;99.90;;;;;;5075678;28;20182;-72
2023/04/27 09:06:13;;;;;;;16.95;9.10;;;14.00;99.90;;;;;;5053896;28;20174;-71
2023/04/27 09:08:49;;;;;;;14.75;7.90;;;14.00;99.90;;;;;;5055625;28;20212;-75
2023/04/27 09:11:28;;;;;;;14.73;8.18;;;14.00;99.90;;;;;;5047887;28;20674;-73
2023/04/27 09:13:53;;;;;;;16.00;9.07;;;13.90;99.90;;;;;;5047773;28;20212;-75
2023/04/27 09:16:24;;;;;;;15.50;7.65;;;13.30;99.90;;;;;;5066771;28;20224;-73
2023/04/27 09:18:49;;;;;;;17.63;9.30;;;13.40;99.90;;;;;;5044557;28;20630;-72
2023/04/27 09:21:42;;;;;;;17.00;9.10;;;13.30;99.90;;;;;;5047809;28;20301;-75
2023/04/27 09:24:12;;;;;;;14.18;8.70;;;13.80;99.90;;;;;;5085524;28;20190;-73
2023/04/27 09:26:39;;;;;;;12.40;7.13;;;13.80;99.90;;;;;;5055190;28;20231;-74
2023/04/27 09:29:04;;;;;;;12.55;8.00;;;13.80;99.90;;;;;;5046006;28;20206;-72
2023/04/27 09:31:31;;;;;;;10.88;7.13;;;13.70;99.90;;;;;;5059176;28;20193;-75
2023/04/27 09:33:57;;;;;;;16.88;8.05;;;14.00;99.90;;;;;;5049452;28;20657;-73
2023/04/27 09:36:24;;;;;;;10.27;7.38;;;14.10;99.90;;;;;;5056321;28;20181;-75
2023/04/27 09:38:51;;;;;;;16.10;8.85;;;14.20;99.90;;;;;;5054480;28;20653;-75
2023/04/27 09:41:18;;;;;;;12.65;8.02;;;14.70;99.90;;;;;;5053557;28;20177;-74
2023/04/27 09:43:45;;;;;;;17.33;7.70;;;14.50;99.90;;;;;;5051874;28;20277;-70
2023/04/27 09:46:15;;;;;;;16.42;8.60;;;14.40;99.90;;;;;;5048442;28;20178;-75
2023/04/27 09:48:41;;;;;;;15.02;7.72;;;14.30;99.90;;;;;;5054415;28;20264;-73
2023/04/27 09:51:07;;;;;;;14.68;8.20;;;14.50;99.90;;;;;;5055163;28;20177;-72
2023/04/27 09:53:39;;;;;;;12.00;8.80;;;14.40;99.90;;;;;;5044828;28;20236;-73
2023/04/27 09:56:41;;;;;;;12.70;7.57;;;14.60;99.90;;;;;;5042509;28;20591;-74
2023/04/27 09:59:25;;;;;;;15.30;9.50;;;15.00;99.90;;;;;;5052427;28;20185;-72
2023/04/27 10:01:55;;;;;;;12.50;7.40;;;14.70;99.90;;;;;;5053639;28;20189;-70
2023/04/27 10:05:01;;;;;;;9.50;7.47;;;14.60;99.90;;;;;;5054419;28;20623;-73
2023/04/27 10:07:28;;;;;;;16.40;7.95;;;14.50;99.90;;;;;;5038564;28;20182;-76
2023/04/27 10:09:59;;;;;;;11.05;7.28;;;14.30;99.90;;;;;;5054025;28;20220;-74
2023/04/27 10:12:33;;;;;;;11.85;7.40;;;14.40;99.90;;;;;;5046398;28;20187;-73
2023/04/27 10:14:59;;;;;;;14.23;8.07;;;14.50;99.90;;;;;;5046856;28;20182;-74
2023/04/27 10:17:33;;;;;;;12.18;7.18;;;14.80;99.90;;;;;;5041670;28;20179;-75
2023/04/27 10:20:00;;;;;;;12.18;8.23;;;14.00;99.90;;;;;;5054462;28;20606;-75
2023/04/27 10:22:43;;;;;;;15.23;7.45;;;14.10;99.90;;;;;;5052465;28;20181;-75
2023/04/27 10:25:22;;;;;;;12.95;7.32;;;13.90;99.90;;;;;;5046775;28;20607;-76
2023/04/27 10:27:59;;;;;;;10.60;8.35;;;14.30;99.90;;;;;;5048321;28;20584;-76
2023/04/27 10:30:44;;;;;;;12.23;7.50;;;14.40;99.90;;;;;;5054080;28;20228;-71
2023/04/27 10:33:10;;;;;;;15.60;6.85;;;14.60;99.90;;;;;;5053536;28;20254;-75
2023/04/27 10:35:37;;;;;;;10.80;6.63;;;14.50;99.90;;;;;;5053525;28;20711;-77
2023/04/27 10:38:07;;;;;;;12.40;8.30;;;14.60;99.90;;;;;;5053106;28;20185;-75
2023/04/27 10:40:36;;;;;;;14.63;7.97;;;14.30;99.90;;;;;;5045432;28;20192;-74
2023/04/27 10:43:12;;;;;;;12.93;7.82;;;14.00;99.90;;;;;;5054293;28;20289;-73
2023/04/27 10:45:39;;;;;;;13.45;8.32;;;13.90;99.90;;;;;;5051589;28;20580;-73
2023/04/27 10:48:06;;;;;;;13.60;8.65;;;14.00;99.90;;;;;;5039584;28;20179;-74
2023/04/27 10:50:32;;;;;;;9.43;6.43;;;14.00;99.90;;;;;;5049338;28;20241;-76
2023/04/27 10:53:04;;;;;;;11.35;6.00;;;14.20;99.90;;;;;;5047162;28;20183;-72
2023/04/27 10:55:30;;;;;;;13.48;7.68;;;14.60;99.90;;;;;;5047768;28;20174;-72
2023/04/27 10:57:58;;;;;;;12.68;7.38;;;15.30;99.90;;;;;;5053550;28;20577;-75
2023/04/27 11:00:42;;;;;;;12.13;7.45;;;15.60;99.90;;;;;;5052713;28;20224;-72
2023/04/27 11:03:20;;;;;;;10.30;7.60;;;15.60;99.90;;;;;;5050540;28;20596;-74
2023/04/27 11:05:49;;;;;;;13.00;7.32;;;15.30;99.90;;;;;;5080772;28;20185;-75
2023/04/27 11:08:17;;;;;;;9.88;7.07;;;14.90;99.90;;;;;;5037979;28;20214;-73
2023/04/27 11:10:45;;;;;;;10.15;7.20;;;15.30;99.90;;;;;;5049994;28;20178;-78
2023/04/27 11:13:13;;;;;;;11.98;7.20;;;15.10;99.90;;;;;;5044555;28;20182;-72
2023/04/27 11:15:46;;;;;;;10.30;7.20;;;15.00;99.90;;;;;;5051095;28;20186;-73
2023/04/27 11:18:12;;;;;;;12.90;8.23;;;15.30;99.90;;;;;;5031770;28;20684;-73
2023/04/27 11:20:38;;;;;;;12.80;7.53;;;15.60;99.90;;;;;;5044540;28;20182;-73
2023/04/27 11:23:04;;;;;;;10.27;5.85;;;15.80;99.90;;;;;;5052129;28;20236;-73
2023/04/27 11:25:31;;;;;;;9.45;6.50;;;15.80;99.90;;;;;;5045898;28;20537;-76
2023/04/27 11:27:57;;;;;;;11.32;6.72;;;15.10;99.90;;;;;;5046716;28;20190;-73
2023/04/27 11:30:23;;;;;;;11.02;7.05;;;14.50;99.90;;;;;;5046792;28;20202;-74
2023/04/27 11:32:49;;;;;;;12.63;7.55;;;14.40;99.90;;;;;;5052909;28;20216;-74
2023/04/27 11:35:17;;;;;;;9.07;6.43;;;14.30;99.90;;;;;;5052611;28;20182;-73
2023/04/27 11:37:43;;;;;;;12.50;7.40;;;14.70;99.90;;;;;;5047319;28;20178;-73
2023/04/27 11:40:10;;;;;;;10.05;5.80;;;14.90;99.90;;;;;;5052086;28;20188;-76
2023/04/27 11:42:35;;;;;;;14.75;7.68;;;15.00;99.90;;;;;;5051969;28;20266;-73
2023/04/27 11:45:07;;;;;;;9.25;6.95;;;14.90;99.90;;;;;;5046372;28;20604;-74
2023/04/27 11:47:36;;;;;;;13.57;7.43;;;14.50;99.90;;;;;;5051898;28;20178;-74
2023/04/27 11:50:05;;;;;;;8.65;6.93;;;14.50;99.90;;;;;;5046774;28;20224;-75
2023/04/27 11:52:33;;;;;;;14.15;6.90;;;14.80;99.90;;;;;;5049538;28;20237;-73
2023/04/27 11:55:00;;;;;;;11.32;7.28;;;15.00;99.90;;;;;;5058843;28;20192;-74
2023/04/27 11:57:30;;;;;;;9.73;7.32;;;15.20;99.90;;;;;;5049931;28;20313;-74
2023/04/27 12:00:01;;;;;;;10.93;6.78;;;15.20;99.90;;;;;;5049865;28;20188;-72
2023/04/27 12:02:28;;;;;;;8.55;6.30;;;15.00;99.90;;;;;;5049015;28;20571;-72
2023/04/27 12:04:54;;;;;;;12.73;6.72;;;15.00;99.90;;;;;;5046507;28;20182;-75
2023/04/27 12:07:20;;;;;;;12.40;6.78;;;14.90;99.90;;;;;;5046329;28;20185;-78
2023/04/27 12:09:46;;;;;;;13.27;6.72;;;14.80;99.90;;;;;;5049936;28;20213;-74
2023/04/27 12:12:12;;;;;;;10.55;6.72;;;14.70;99.90;;;;;;5044398;28;20189;-79
2023/04/27 12:14:39;;;;;;;10.05;6.55;;;14.60;99.90;;;;;;5050361;28;20177;-73
2023/04/27 12:17:05;;;;;;;7.15;5.85;;;14.80;99.90;;;;;;5044733;28;20189;-75
2023/04/27 12:19:31;;;;;;;12.70;6.82;;;15.10;99.90;;;;;;5048732;28;20664;-74
2023/04/27 12:21:58;;;;;;;9.73;6.82;;;15.00;99.90;;;;;;5050705;28;20225;-72
2023/04/27 12:24:23;;;;;;;14.23;8.18;;;14.90;99.90;;;;;;5047491;28;20183;-74
2023/04/27 12:26:50;;;;;;;6.80;5.80;;;14.80;99.90;;;;;;5052419;28;20644;-74
2023/04/27 12:29:16;;;;;;;10.50;6.00;;;14.90;99.90;;;;;;5042961;28;20210;-75
2023/04/27 12:31:42;;;;;;;9.18;5.90;;;14.90;99.90;;;;;;5082871;28;20245;-75
2023/04/27 12:34:08;;;;;;;9.35;6.40;;;14.70;99.90;;;;;;5043849;28;20654;-74
2023/04/27 12:36:34;;;;;;;11.15;7.07;;;14.70;99.90;;;;;;5051089;28;20190;-75
2023/04/27 12:39:16;;;;;;;11.50;7.88;;;14.80;99.90;;;;;;5040055;28;20178;-77
2023/04/27 12:41:49;;;;;;;12.75;7.43;;;14.70;99.90;;;;;;5049071;28;20182;-76